Nikolai, Alaska
Current Conditions -  °F | °C
As of 3:56 AM on Monday 20 Oct 2014 (Local Time) from PAFS Reporting Station
Overcast Overcast  
Wind Chill: 22°   Ceiling: 2700
Heat Index: 29°   Visibility: 10mi
Dew Point: 21°   Wind: 7mph
Humidity: 72%   Direction: 30°NNE
Pressure: 29.14"   Gusts: NA
Location:  63.01°N, 154.38°W
Report Text: PAFS 201156Z AUTO 03006KT 10SM OVC027 M02/M06 A2914 RMK AO2 TSNO 58016 T10161061 11016 21027 SLP879 $
Loading
Personal Weather Stations






























Interactive Weather Map
Tropical Storm Tracking
New forecast layout! Learn more

10-Day Weather Forecast

Advertisements
Track Severe Weather on mobile